createdAt,value
2018-09-27T00:01:59.931Z,4.17
2018-09-27T00:04:33.008Z,3.83
2018-09-27T00:07:04.912Z,3.90
2018-09-27T00:09:37.259Z,2.70
2018-09-27T00:12:09.101Z,5.73
2018-09-27T00:14:41.111Z,4.27
2018-09-27T00:17:12.966Z,3.00
2018-09-27T00:19:45.051Z,4.77
2018-09-27T00:22:18.668Z,3.60
2018-09-27T00:24:50.600Z,4.13
2018-09-27T00:27:22.513Z,4.50
2018-09-27T00:29:54.774Z,4.57
2018-09-27T00:32:27.836Z,5.17
2018-09-27T00:35:00.035Z,4.47
2018-09-27T00:37:32.078Z,4.83
2018-09-27T00:40:04.307Z,4.40
2018-09-27T00:42:36.535Z,4.10
2018-09-27T00:45:08.674Z,3.30
2018-09-27T00:47:40.425Z,3.93
2018-09-27T00:50:12.337Z,5.30
2018-09-27T00:52:44.746Z,5.70
2018-09-27T00:55:16.513Z,4.60
2018-09-27T00:57:48.400Z,4.40
2018-09-27T01:00:20.640Z,5.63
2018-09-27T01:02:52.737Z,6.77
2018-09-27T01:05:25.055Z,7.20
2018-09-27T01:07:56.810Z,4.63
2018-09-27T01:10:29.094Z,9.00
2018-09-27T01:13:00.928Z,8.07
2018-09-27T01:15:33.232Z,3.87
2018-09-27T01:18:05.887Z,4.30
2018-09-27T01:20:37.797Z,4.07
2018-09-27T01:23:09.700Z,5.90
2018-09-27T01:25:42.149Z,5.10
2018-09-27T01:28:14.800Z,4.47
2018-09-27T01:30:46.671Z,5.63
2018-09-27T01:33:18.342Z,7.10
2018-09-27T01:35:50.750Z,3.87
2018-09-27T01:38:22.570Z,3.33
2018-09-27T01:40:54.818Z,6.27
2018-09-27T01:43:27.645Z,3.27
2018-09-27T01:45:59.600Z,5.93
2018-09-27T01:48:31.654Z,3.70
2018-09-27T01:51:03.681Z,4.03
2018-09-27T01:53:35.727Z,4.83
2018-09-27T01:56:07.965Z,4.17
2018-09-27T01:58:39.833Z,3.47
2018-09-27T02:01:11.748Z,3.63
2018-09-27T02:03:43.781Z,4.53
2018-09-27T02:06:16.768Z,4.10
2018-09-27T02:08:48.558Z,3.80
2018-09-27T02:11:20.684Z,4.00
2018-09-27T02:13:52.603Z,3.73
2018-09-27T02:16:24.437Z,3.97
2018-09-27T02:18:56.399Z,4.63
2018-09-27T02:21:28.701Z,3.20
2018-09-27T02:24:00.801Z,3.77
2018-09-27T02:26:32.607Z,3.30
2018-09-27T02:29:04.690Z,3.83
2018-09-27T02:31:36.776Z,3.53
2018-09-27T02:34:08.750Z,5.00
2018-09-27T02:36:41.300Z,4.00
2018-09-27T02:39:13.421Z,3.77
2018-09-27T02:41:45.612Z,4.27
2018-09-27T02:44:18.100Z,4.60
2018-09-27T02:46:49.984Z,4.60
2018-09-27T02:49:21.713Z,6.13
2018-09-27T02:51:53.961Z,4.17
2018-09-27T02:54:25.528Z,3.97
2018-09-27T02:56:57.232Z,3.83
2018-09-27T02:59:29.115Z,5.27
2018-09-27T03:02:01.538Z,4.03
2018-09-27T03:04:33.339Z,3.97
2018-09-27T03:07:05.560Z,4.40
2018-09-27T03:09:37.686Z,3.60
2018-09-27T03:12:10.300Z,3.43
2018-09-27T03:14:42.343Z,3.57
2018-09-27T03:17:14.216Z,4.33
2018-09-27T03:19:45.878Z,3.57
2018-09-27T03:22:17.961Z,3.57
2018-09-27T03:24:50.885Z,5.13
2018-09-27T03:27:23.008Z,6.43
2018-09-27T03:29:55.003Z,3.60
2018-09-27T03:32:27.152Z,3.30
2018-09-27T03:34:59.211Z,3.27
2018-09-27T03:37:31.149Z,3.90
2018-09-27T03:40:03.567Z,4.53
2018-09-27T03:42:35.669Z,4.87
2018-09-27T03:45:08.135Z,5.17
2018-09-27T03:47:40.446Z,3.40
2018-09-27T03:50:12.570Z,3.30
2018-09-27T03:52:44.730Z,3.70
2018-09-27T03:55:17.303Z,4.07
2018-09-27T03:57:49.666Z,3.60
2018-09-27T04:00:22.043Z,3.77
2018-09-27T04:02:54.077Z,3.63
2018-09-27T04:05:26.033Z,3.87
2018-09-27T04:07:57.997Z,3.47
2018-09-27T04:10:30.036Z,7.30
2018-09-27T04:13:02.554Z,4.07
2018-09-27T04:15:34.787Z,3.20
2018-09-27T04:18:07.642Z,9.53
2018-09-27T04:20:55.625Z,3.70
2018-09-27T04:23:27.759Z,4.13
2018-09-27T04:26:00.189Z,3.87
2018-09-27T04:28:33.188Z,5.17
2018-09-27T04:31:05.033Z,5.43
2018-09-27T04:33:37.041Z,4.80
2018-09-27T04:36:09.062Z,7.17
2018-09-27T04:38:41.310Z,7.93
2018-09-27T04:41:13.453Z,4.60
2018-09-27T04:43:45.726Z,4.70
2018-09-27T04:46:18.080Z,3.97
2018-09-27T04:48:50.039Z,5.53
2018-09-27T04:51:22.200Z,4.10
2018-09-27T04:53:54.321Z,5.93
2018-09-27T04:56:26.879Z,4.70
2018-09-27T04:58:59.132Z,7.00
2018-09-27T05:01:31.405Z,5.20
2018-09-27T05:04:04.497Z,4.87
2018-09-27T05:06:36.995Z,5.77
2018-09-27T05:09:10.491Z,4.23
2018-09-27T05:11:44.083Z,4.53
2018-09-27T05:14:15.778Z,5.97
2018-09-27T05:16:47.946Z,7.87
2018-09-27T05:19:20.577Z,3.50
2018-09-27T05:21:52.893Z,3.63
2018-09-27T05:24:24.957Z,4.43
2018-09-27T05:26:57.235Z,5.73
2018-09-27T05:29:29.313Z,11.23
2018-09-27T05:32:01.059Z,36.77
2018-09-27T05:34:33.102Z,23.63
2018-09-27T05:37:05.371Z,12.83
2018-09-27T05:39:37.539Z,7.47
2018-09-27T05:42:09.590Z,5.47
2018-09-27T05:44:41.783Z,9.07
2018-09-27T05:47:13.754Z,14.80
2018-09-27T05:49:45.593Z,17.13
2018-09-27T05:52:17.814Z,9.53
2018-09-27T05:54:50.157Z,9.77
2018-09-27T05:57:25.214Z,6.60
2018-09-27T05:59:57.669Z,4.00
2018-09-27T06:02:30.071Z,6.17
2018-09-27T06:05:02.347Z,3.73
2018-09-27T06:07:34.107Z,3.77
2018-09-27T06:10:06.601Z,4.23
2018-09-27T06:12:38.810Z,8.37
2018-09-27T06:15:10.908Z,3.43
2018-09-27T06:17:43.399Z,3.57
2018-09-27T06:20:16.031Z,3.67
2018-09-27T06:22:48.582Z,3.20
2018-09-27T06:25:20.371Z,5.90
2018-09-27T06:27:52.663Z,3.77
2018-09-27T06:30:24.654Z,7.10
2018-09-27T06:32:57.943Z,5.43
2018-09-27T06:35:30.098Z,4.70
2018-09-27T06:38:02.368Z,7.77
2018-09-27T06:40:33.997Z,10.73
2018-09-27T06:43:05.964Z,6.63
2018-09-27T06:45:38.410Z,8.83
2018-09-27T06:48:10.881Z,9.70
2018-09-27T06:50:42.915Z,7.57
2018-09-27T06:53:15.415Z,6.33
2018-09-27T06:55:47.650Z,11.10
2018-09-27T06:58:19.869Z,30.30
2018-09-27T07:00:52.139Z,10.87
2018-09-27T07:03:24.886Z,5.60
2018-09-27T07:05:57.029Z,4.27
2018-09-27T07:08:28.996Z,4.30
2018-09-27T07:11:01.115Z,6.77
2018-09-27T07:13:32.934Z,5.00
2018-09-27T07:16:05.093Z,5.23
2018-09-27T07:18:46.158Z,7.13
2018-09-27T07:21:18.537Z,9.83
2018-09-27T07:23:50.794Z,6.40
2018-09-27T07:26:23.252Z,6.40
2018-09-27T07:28:55.510Z,2.53
2018-09-27T07:31:33.975Z,4.43
2018-09-27T07:34:05.981Z,3.27
2018-09-27T07:36:37.997Z,10.70
2018-09-27T07:39:12.490Z,7.80
2018-09-27T07:41:45.378Z,4.70
2018-09-27T07:44:17.900Z,4.33
2018-09-27T07:46:50.388Z,5.30
2018-09-27T07:49:22.887Z,3.10
2018-09-27T07:51:54.853Z,2.57
2018-09-27T07:54:27.164Z,9.67
2018-09-27T07:56:59.594Z,3.67
2018-09-27T07:59:32.718Z,2.97
2018-09-27T08:02:05.468Z,3.77
2018-09-27T08:04:37.924Z,8.20
2018-09-27T08:07:10.776Z,3.77
2018-09-27T08:09:43.328Z,3.27
2018-09-27T08:12:15.603Z,4.33
2018-09-27T08:14:48.093Z,6.73
2018-09-27T08:17:20.740Z,2.60
2018-09-27T08:19:53.641Z,4.77
2018-09-27T08:22:25.977Z,2.70
2018-09-27T08:24:58.129Z,2.60
2018-09-27T08:27:30.773Z,4.90
2018-09-27T08:30:03.028Z,3.33
2018-09-27T08:32:35.145Z,4.40
2018-09-27T08:35:07.414Z,3.63
2018-09-27T08:37:39.391Z,3.03
2018-09-27T08:40:11.364Z,11.00
2018-09-27T08:42:43.556Z,7.50
2018-09-27T08:45:16.212Z,4.17
2018-09-27T08:47:48.008Z,5.70
2018-09-27T08:50:20.452Z,3.77
2018-09-27T08:52:52.906Z,2.93
2018-09-27T08:55:25.297Z,4.40
2018-09-27T08:57:57.574Z,4.30
2018-09-27T09:00:30.196Z,3.27
2018-09-27T09:03:02.339Z,2.60
2018-09-27T09:05:34.403Z,2.90
2018-09-27T09:08:06.718Z,5.20
2018-09-27T09:10:39.817Z,2.83
2018-09-27T09:13:14.300Z,3.50
2018-09-27T09:15:46.353Z,3.13
2018-09-27T09:18:18.366Z,3.33
2018-09-27T09:20:51.143Z,3.23
2018-09-27T09:23:23.581Z,3.40
2018-09-27T09:25:55.892Z,3.40
2018-09-27T09:28:27.596Z,3.00
2018-09-27T09:30:59.604Z,4.60
2018-09-27T09:33:31.358Z,3.03
2018-09-27T09:36:04.100Z,6.80
2018-09-27T09:38:36.275Z,5.40
2018-09-27T09:41:08.410Z,4.40
2018-09-27T09:43:40.057Z,5.83
2018-09-27T09:46:12.326Z,3.30
2018-09-27T09:48:44.435Z,3.73
2018-09-27T09:51:17.302Z,2.63
2018-09-27T09:53:49.564Z,2.80
2018-09-27T09:56:22.039Z,3.47
2018-09-27T09:58:54.273Z,3.07
2018-09-27T10:01:25.790Z,4.10
2018-09-27T10:03:57.794Z,2.77
2018-09-27T10:06:30.033Z,4.60
2018-09-27T10:09:02.278Z,8.33
2018-09-27T10:11:35.241Z,3.17
2018-09-27T10:14:07.654Z,5.10
2018-09-27T10:16:40.821Z,3.27
2018-09-27T10:19:12.907Z,2.33
2018-09-27T10:21:45.067Z,3.07
2018-09-27T10:24:17.499Z,5.03
2018-09-27T10:26:49.747Z,2.57
2018-09-27T10:29:21.927Z,9.83
2018-09-27T10:31:54.851Z,2.50
2018-09-27T10:34:27.112Z,2.27
2018-09-27T10:36:59.390Z,3.10
2018-09-27T10:39:32.831Z,4.93
2018-09-27T10:42:04.753Z,3.70
2018-09-27T10:44:36.903Z,4.03
2018-09-27T10:47:09.307Z,2.93
2018-09-27T10:49:42.285Z,2.53
2018-09-27T10:52:14.179Z,1.90
2018-09-27T10:54:46.168Z,4.23
2018-09-27T10:57:19.428Z,2.00
2018-09-27T10:59:51.672Z,4.07
2018-09-27T11:02:23.833Z,5.10
2018-09-27T11:04:56.269Z,2.97
2018-09-27T11:07:38.234Z,2.10
2018-09-27T11:10:14.875Z,2.53
2018-09-27T11:12:59.370Z,2.43
2018-09-27T11:15:41.300Z,4.80
2018-09-27T11:18:24.708Z,3.57
2018-09-27T11:21:05.208Z,5.13
2018-09-27T11:23:37.560Z,3.83
2018-09-27T11:26:13.670Z,2.90
2018-09-27T11:28:55.988Z,3.53
2018-09-27T11:31:34.518Z,6.07
2018-09-27T11:34:09.588Z,3.73
2018-09-27T11:36:41.852Z,4.13
2018-09-27T11:39:14.437Z,3.50
2018-09-27T11:41:46.887Z,3.27
2018-09-27T11:44:18.992Z,6.43
2018-09-27T11:46:51.390Z,4.27
2018-09-27T11:49:22.968Z,4.20
2018-09-27T11:51:55.245Z,4.77
2018-09-27T11:54:28.205Z,8.83
2018-09-27T11:57:00.414Z,6.00
2018-09-27T11:59:32.871Z,3.53
2018-09-27T12:02:05.332Z,2.97
2018-09-27T12:04:37.516Z,4.37
2018-09-27T12:07:09.224Z,2.87
2018-09-27T12:09:41.436Z,3.00
2018-09-27T12:12:13.885Z,3.53
2018-09-27T12:14:46.773Z,2.80
2018-09-27T12:17:20.147Z,6.47
2018-09-27T12:19:52.574Z,3.17
2018-09-27T12:22:24.893Z,2.27
2018-09-27T12:24:57.326Z,3.70
2018-09-27T12:27:29.877Z,4.40
2018-09-27T12:30:02.301Z,3.83
2018-09-27T12:32:39.892Z,6.13
2018-09-27T12:35:22.759Z,5.50
2018-09-27T12:37:54.951Z,2.80
2018-09-27T12:40:27.286Z,3.63
2018-09-27T12:43:01.943Z,7.23
2018-09-27T12:45:44.061Z,10.13
2018-09-27T12:48:16.726Z,6.43
2018-09-27T12:50:49.043Z,4.17
2018-09-27T12:53:21.549Z,4.57
2018-09-27T12:55:58.151Z,3.43
2018-09-27T12:58:46.396Z,5.67
2018-09-27T13:01:20.384Z,5.53
2018-09-27T13:03:52.568Z,5.33
2018-09-27T13:06:24.781Z,3.53
2018-09-27T13:08:57.414Z,7.67
2018-09-27T13:11:29.531Z,2.47
2018-09-27T13:14:01.347Z,3.83
2018-09-27T13:16:33.188Z,1.97
2018-09-27T13:19:05.211Z,5.37
2018-09-27T13:21:37.702Z,4.97
2018-09-27T13:24:09.734Z,2.57
2018-09-27T13:26:41.898Z,1.77
2018-09-27T13:29:13.983Z,9.83
2018-09-27T13:31:46.954Z,2.40
2018-09-27T13:34:18.765Z,1.90
2018-09-27T13:36:50.673Z,2.43
2018-09-27T13:39:22.797Z,3.67
2018-09-27T13:41:54.830Z,2.33
2018-09-27T13:44:27.233Z,2.23
2018-09-27T13:46:59.532Z,1.70
2018-09-27T13:49:31.816Z,1.63
2018-09-27T13:52:03.672Z,1.50
2018-09-27T13:54:36.015Z,1.70
2018-09-27T13:57:08.372Z,2.80
2018-09-27T13:59:41.107Z,1.73
2018-09-27T14:02:13.565Z,1.47
2018-09-27T14:04:45.913Z,2.27
2018-09-27T14:07:17.968Z,2.83
2018-09-27T14:09:49.700Z,2.10
2018-09-27T14:12:21.745Z,1.50
2018-09-27T14:14:53.961Z,1.77
2018-09-27T14:17:26.060Z,5.00
2018-09-27T14:19:58.454Z,3.77
2018-09-27T14:22:30.478Z,2.07
2018-09-27T14:25:02.729Z,1.60
2018-09-27T14:27:36.845Z,1.80
2018-09-27T14:30:08.929Z,3.20
2018-09-27T14:32:41.556Z,1.47
2018-09-27T14:35:13.867Z,1.70
2018-09-27T14:37:46.327Z,3.00
2018-09-27T14:40:18.457Z,1.80
2018-09-27T14:42:50.878Z,2.73
2018-09-27T14:45:23.923Z,2.23
2018-09-27T14:47:57.279Z,4.27
2018-09-27T14:50:29.779Z,2.30
2018-09-27T14:53:01.848Z,2.80
2018-09-27T14:55:33.918Z,6.60
2018-09-27T14:58:06.230Z,3.83
2018-09-27T15:00:38.176Z,3.23
2018-09-27T15:08:47.973Z,3.00
2018-09-27T15:11:20.171Z,1.53
2018-09-27T15:13:52.703Z,1.90
2018-09-27T15:16:25.072Z,2.67
2018-09-27T15:18:56.906Z,2.37
2018-09-27T15:21:29.892Z,3.97
2018-09-27T15:24:03.105Z,4.87
2018-09-27T15:26:35.254Z,9.23
2018-09-27T15:29:07.376Z,2.77
2018-09-27T15:31:39.895Z,1.60
2018-09-27T15:34:12.411Z,7.30
2018-09-27T15:36:44.516Z,2.83
2018-09-27T15:39:16.834Z,3.53
2018-09-27T15:41:49.700Z,3.17
2018-09-27T15:44:22.180Z,4.60
2018-09-27T15:46:54.814Z,2.57
2018-09-27T15:49:27.554Z,2.20
2018-09-27T15:51:59.898Z,3.90
2018-09-27T15:54:31.970Z,21.03
2018-09-27T15:57:05.303Z,3.73
2018-09-27T15:59:37.854Z,3.47
2018-09-27T16:02:10.756Z,2.03
2018-09-27T16:04:43.044Z,3.00
2018-09-27T16:07:15.134Z,2.27
2018-09-27T16:09:47.647Z,3.63
2018-09-27T16:12:19.643Z,3.30
2018-09-27T16:14:52.330Z,3.13
2018-09-27T16:17:24.846Z,4.37
2018-09-27T16:19:57.215Z,4.20
2018-09-27T16:22:29.651Z,2.83
2018-09-27T16:25:02.182Z,12.80
2018-09-27T16:27:35.153Z,21.60
2018-09-27T16:30:08.293Z,15.20
2018-09-27T16:32:41.173Z,6.97
2018-09-27T16:35:14.239Z,11.63
2018-09-27T16:37:47.385Z,11.73
2018-09-27T16:40:20.593Z,8.33
2018-09-27T16:42:53.101Z,4.33
2018-09-27T16:45:25.962Z,14.07
2018-09-27T16:47:57.954Z,12.57
2018-09-27T16:50:31.177Z,9.07
2018-09-27T16:53:04.930Z,12.30
2018-09-27T16:55:37.829Z,19.03
2018-09-27T16:58:10.601Z,15.87
2018-09-27T17:00:43.926Z,20.13
2018-09-27T17:03:16.605Z,18.43
2018-09-27T17:05:49.263Z,27.93
2018-09-27T17:08:21.422Z,16.47
2018-09-27T17:10:54.029Z,11.37
2018-09-27T17:13:27.106Z,8.13
2018-09-27T17:15:59.810Z,21.27
2018-09-27T17:18:32.543Z,21.80
2018-09-27T17:21:04.966Z,7.03
2018-09-27T17:23:38.157Z,9.13
2018-09-27T17:26:10.513Z,8.53
2018-09-27T17:28:43.260Z,12.70
2018-09-27T17:31:15.832Z,24.67
2018-09-27T17:33:48.967Z,18.33
2018-09-27T17:36:21.700Z,16.17
2018-09-27T17:38:54.453Z,11.50
2018-09-27T17:41:27.079Z,13.10
2018-09-27T17:43:59.964Z,5.87
2018-09-27T17:46:32.367Z,5.83
2018-09-27T17:49:05.840Z,8.10
2018-09-27T17:51:38.122Z,7.03
2018-09-27T17:54:10.977Z,8.33
2018-09-27T17:56:43.486Z,7.83
2018-09-27T17:59:16.322Z,6.60
2018-09-27T18:01:48.425Z,6.33
2018-09-27T18:04:21.489Z,8.97
2018-09-27T18:06:53.970Z,6.33
2018-09-27T18:09:27.290Z,6.07
2018-09-27T18:12:00.808Z,7.70
2018-09-27T18:14:33.365Z,6.73
2018-09-27T18:17:06.740Z,7.27
2018-09-27T18:19:39.928Z,11.70
2018-09-27T18:22:12.625Z,7.23
2018-09-27T18:24:44.702Z,6.10
2018-09-27T18:27:18.142Z,7.40
2018-09-27T18:29:50.697Z,5.53
2018-09-27T18:32:23.863Z,7.33
2018-09-27T18:34:56.494Z,6.00
2018-09-27T18:37:29.043Z,9.10
2018-09-27T18:40:01.350Z,6.40
2018-09-27T18:42:33.823Z,6.00
2018-09-27T18:45:06.634Z,7.77
2018-09-27T18:47:38.815Z,5.83
2018-09-27T18:50:12.296Z,6.80
2018-09-27T18:52:44.706Z,4.80
2018-09-27T18:55:16.890Z,5.47
2018-09-27T18:57:48.660Z,5.67
2018-09-27T19:00:20.487Z,6.90
2018-09-27T19:02:52.785Z,6.93
2018-09-27T19:05:26.279Z,7.13
2018-09-27T19:07:58.874Z,8.90
2018-09-27T19:10:32.037Z,5.90
2018-09-27T19:13:04.415Z,7.17
2018-09-27T19:15:36.610Z,9.03
2018-09-27T19:18:10.472Z,6.97
2018-09-27T19:20:42.765Z,7.47
2018-09-27T19:23:15.434Z,6.07
2018-09-27T19:25:48.077Z,5.13
2018-09-27T19:28:20.882Z,7.20
2018-09-27T19:30:54.542Z,5.63
2018-09-27T19:33:26.885Z,5.23
2018-09-27T19:36:00.076Z,8.43
2018-09-27T19:38:32.545Z,6.10
2018-09-27T19:41:05.267Z,6.50
2018-09-27T19:43:37.580Z,5.30
2018-09-27T19:46:09.622Z,6.90
2018-09-27T19:48:42.005Z,5.83
2018-09-27T19:51:15.201Z,9.07
2018-09-27T19:53:47.395Z,5.57
2018-09-27T19:56:20.129Z,6.80
2018-09-27T19:58:52.776Z,4.00
2018-09-27T20:01:25.503Z,5.43
2018-09-27T20:03:57.881Z,6.90
2018-09-27T20:06:30.488Z,5.87
2018-09-27T20:09:02.628Z,11.03
2018-09-27T20:11:34.836Z,10.13
2018-09-27T20:14:07.247Z,6.10
2018-09-27T20:16:40.426Z,5.10
2018-09-27T20:19:12.295Z,5.77
2018-09-27T20:21:44.146Z,6.63
2018-09-27T20:24:16.261Z,11.37
2018-09-27T20:26:48.689Z,8.43
2018-09-27T20:29:20.996Z,8.33
2018-09-27T20:31:53.610Z,11.40
2018-09-27T20:34:26.215Z,10.83
2018-09-27T20:36:58.846Z,14.87
2018-09-27T20:39:30.975Z,12.77
2018-09-27T20:42:04.740Z,12.53
2018-09-27T20:44:36.930Z,18.93
2018-09-27T20:47:09.304Z,15.57
2018-09-27T20:49:41.361Z,21.37
2018-09-27T20:52:13.756Z,22.10
2018-09-27T20:54:45.837Z,18.73
2018-09-27T20:57:17.894Z,19.17
2018-09-27T20:59:50.463Z,24.63
2018-09-27T21:02:23.016Z,18.07
2018-09-27T21:04:55.499Z,21.37
2018-09-27T21:07:27.405Z,18.13
2018-09-27T21:09:59.607Z,20.80
2018-09-27T21:12:31.657Z,25.43
2018-09-27T21:15:03.992Z,21.50
2018-09-27T21:17:36.183Z,23.33
2018-09-27T21:20:08.427Z,19.83
2018-09-27T21:22:40.424Z,19.40
2018-09-27T21:25:12.590Z,18.03
2018-09-27T21:27:44.531Z,20.73
2018-09-27T21:30:16.520Z,17.53
2018-09-27T21:32:48.186Z,15.70
2018-09-27T21:35:19.967Z,13.53
2018-09-27T21:37:52.136Z,16.63
2018-09-27T21:40:24.017Z,15.13
2018-09-27T21:42:56.569Z,16.00
2018-09-27T21:45:28.646Z,16.57
2018-09-27T21:48:00.657Z,14.43
2018-09-27T21:50:33.073Z,13.83
2018-09-27T21:53:05.173Z,15.10
2018-09-27T21:55:36.906Z,17.47
2018-09-27T21:58:09.234Z,15.77
2018-09-27T22:00:41.130Z,17.73
2018-09-27T22:03:13.250Z,14.43
2018-09-27T22:05:45.796Z,14.97
2018-09-27T22:08:18.455Z,14.07
2018-09-27T22:10:50.627Z,15.10
2018-09-27T22:13:23.378Z,15.27
2018-09-27T22:15:55.276Z,12.80
2018-09-27T22:18:27.308Z,18.20
2018-09-27T22:20:59.660Z,11.70
2018-09-27T22:23:31.789Z,13.10
2018-09-27T22:26:03.685Z,12.60
2018-09-27T22:28:35.807Z,15.40
2018-09-27T22:31:08.353Z,13.17
2018-09-27T22:33:40.591Z,13.87
2018-09-27T22:36:12.383Z,13.00
2018-09-27T22:38:44.434Z,13.60
2018-09-27T22:41:17.228Z,13.23
2018-09-27T22:43:49.384Z,11.47
2018-09-27T22:46:21.223Z,13.27
2018-09-27T22:48:53.041Z,12.23
2018-09-27T22:51:25.156Z,14.37
2018-09-27T22:53:57.275Z,15.30
2018-09-27T22:56:29.102Z,14.00
2018-09-27T22:59:01.276Z,13.57
2018-09-27T23:01:33.362Z,14.40
2018-09-27T23:04:05.292Z,12.73
2018-09-27T23:06:37.941Z,12.83
2018-09-27T23:09:10.546Z,12.67
2018-09-27T23:11:43.265Z,13.57
2018-09-27T23:14:15.241Z,11.90
2018-09-27T23:16:48.103Z,10.67
2018-09-27T23:19:21.614Z,11.00
2018-09-27T23:21:54.137Z,12.37
2018-09-27T23:24:26.002Z,9.70
2018-09-27T23:26:58.299Z,12.50
2018-09-27T23:29:30.353Z,13.63
2018-09-27T23:32:03.442Z,13.43
2018-09-27T23:34:35.092Z,9.67
2018-09-27T23:37:07.692Z,10.80
2018-09-27T23:39:39.650Z,12.00
2018-09-27T23:42:11.602Z,11.13
2018-09-27T23:44:43.506Z,12.43
2018-09-27T23:47:15.282Z,9.40
2018-09-27T23:49:47.341Z,10.93
2018-09-27T23:52:19.629Z,10.13
2018-09-27T23:54:52.687Z,10.53
2018-09-27T23:57:24.837Z,11.60
2018-09-27T23:59:57.514Z,13.20
